Ryuhomaru — JD2639 — position and weather

sailwx.info

Track history (hours):
 
Tides and Currents Weather Stations Pressure Air Temp Water Temp Dewpoint Dewpoint Depression Visibility Wind Speed Wind Dir Waves Ship Positions

Ryuhomaru

Last reported at 2017-May-25 08:26 UTC. Time now 2017-May-25 20:05 UTC.
Position N 34°33' E 135°27'.

Length 42 m; draft 3.5 m.

Type: Tug. MMSI: 431000586.

Date/timePositionNaut miles runAvg speedWind from/ knotsBaromVisibWave heightAir tempDewpointWater temp
2017-May-25 08:26N 34°33' E 135°27'3 6.3
2017-May-25 08:00N 34°34' E 135°24'5 9.1
2017-May-25 07:30N 34°38' E 135°27'0 0.2
2017-May-25 07:00N 34°38' E 135°26'4 8.8
2017-May-25 06:30N 34°35' E 135°24'3 1.6
2017-May-25 04:54N 34°33' E 135°27'0 0.0
2017-May-25 04:28N 34°33' E 135°27'0 0.0
2017-May-25 04:00N 34°33' E 135°27'0 0.0
2017-May-25 03:24N 34°33' E 135°27'0 0.0
2017-May-25 01:54N 34°33' E 135°27'0 0.0
2017-May-25 01:30N 34°33' E 135°27'0 0.0
2017-May-25 01:00N 34°33' E 135°27'0 0.0
2017-May-25 00:23N 34°33' E 135°27'0 0.0
2017-May-24 23:59N 34°33' E 135°27'1 2.7
2017-May-24 23:27N 34°33' E 135°25'612.9
2017-May-24 22:59N 34°29' E 135°20'3 6.4
2017-May-24 22:30N 34°26' E 135°19'0 0.7
2017-May-24 22:00N 34°26' E 135°19'713.5
2017-May-24 21:30N 34°32' E 135°23'3 6.8
2017-May-24 21:00N 34°33' E 135°27'0 0.0
2017-May-24 20:30N 34°33' E 135°27'0 0.0
2017-May-24 03:39N 34°33' E 135°27'0 0.0
2017-May-24 03:30N 34°33' E 135°27'2 3.5
2017-May-24 02:56N 34°33' E 135°24'0 0.0
2017-May-24 02:28N 34°33' E 135°24'0 0.2
2017-May-24 01:58N 34°33' E 135°24'2 4.4
2017-May-24 01:25N 34°33' E 135°21'1 3.1
2017-May-24 00:59N 34°33' E 135°23'3 6.4
2017-May-24 00:29N 34°33' E 135°27'0 0.0
2017-May-23 23:58N 34°33' E 135°27'0 0.0
2017-May-23 23:30N 34°33' E 135°27'0 0.0
2017-May-23 08:30N 34°33' E 135°27'2 4.7
2017-May-23 08:00N 34°33' E 135°24'714.8
2017-May-23 07:30N 34°29' E 135°16'815.2
2017-May-23 06:57N 34°24' E 135°08'4 2.9
2017-May-23 05:37N 34°23' E 135°04'213.4
2017-May-23 05:29N 34°25' E 135°06'713.9
2017-May-23 05:00N 34°28' E 135°12'713.4
2017-May-23 04:28N 34°33' E 135°19'4 9.1
2017-May-23 04:00N 34°33' E 135°24'0 0.4
2017-May-23 03:30N 34°33' E 135°24'2 3.3
2017-May-23 02:57N 34°33' E 135°26'0 0.1
2017-May-23 00:45N 34°33' E 135°27'0 0.0
2017-May-23 00:29N 34°33' E 135°27'0 0.0
2017-May-22 23:59N 34°33' E 135°27'0 0.0
2017-May-22 23:30N 34°33' E 135°27'0 0.0
2017-May-22 23:00N 34°33' E 135°27'0 0.0
2017-May-22 02:50N 34°33' E 135°27'0 1.2
2017-May-22 02:28N 34°33' E 135°26'2 3.5
2017-May-22 02:00N 34°33' E 135°24'0 0.0
2017-May-22 01:29N 34°33' E 135°24'0 0.4
2017-May-22 01:00N 34°33' E 135°24'3 5.0
2017-May-22 00:20N 34°33' E 135°20'3 7.9
2017-May-22 00:00N 34°33' E 135°17'510.1
2017-May-21 23:30N 34°29' E 135°13'611.9
2017-May-21 23:00N 34°25' E 135°08'1213.1
2017-May-21 22:04N 34°15' E 134°59'111.9
2017-May-21 22:00N 34°14' E 134°60'1 2.5
2017-May-21 21:30N 34°13' E 135°00'1011.8
2017-May-21 20:39N 34°23' E 135°02'213.6
2017-May-21 20:29N 34°24' E 135°05'713.7
2017-May-21 20:00N 34°28' E 135°11'713.9
2017-May-21 19:30N 34°31' E 135°19'612.7
2017-May-21 19:00N 34°33' E 135°26'1 1.5
2017-May-21 18:29N 34°33' E 135°27'0 0.0
2017-May-21 18:00N 34°33' E 135°27'0 0.0
2017-May-21 10:06N 34°33' E 135°27'0 0.0
2017-May-21 04:23N 34°33' E 135°27'2 3.8
2017-May-21 03:56N 34°33' E 135°25'511.9
2017-May-21 03:30N 34°39' E 135°24'1 1.8
2017-May-21 03:00N 34°39' E 135°26'2 4.3
2017-May-21 02:30N 34°38' E 135°23'510.4
2017-May-21 02:00N 34°33' E 135°27'0 0.1
2017-May-21 01:29N 34°33' E 135°27'0 0.0
2017-May-21 00:58N 34°33' E 135°27'0 0.0
2017-May-21 00:30N 34°33' E 135°27'0 0.0
2017-May-21 00:00N 34°33' E 135°27'0 0.0
2017-May-20 23:30N 34°33' E 135°27'0 0.0
2017-May-20 02:56N 34°33' E 135°27'512.0
2017-May-20 02:30N 34°34' E 135°20'3 6.0
2017-May-20 02:00N 34°33' E 135°24'0 0.6
2017-May-20 01:30N 34°33' E 135°24'0 0.2
2017-May-20 00:55N 34°33' E 135°24'0 0.1
2017-May-20 00:30N 34°33' E 135°24'0 0.5
2017-May-20 00:00N 34°33' E 135°24'0 0.4
2017-May-19 23:30N 34°33' E 135°24'0 0.1
2017-May-19 22:59N 34°33' E 135°24'0 0.1
2017-May-19 22:30N 34°33' E 135°24'0 0.1
2017-May-19 21:57N 34°33' E 135°24'0 0.1
2017-May-19 21:28N 34°33' E 135°24'0 0.0
2017-May-19 21:00N 34°33' E 135°24'0 0.1
2017-May-19 20:29N 34°33' E 135°24'0 0.1
2017-May-19 20:00N 34°33' E 135°24'0 0.0
2017-May-19 19:30N 34°33' E 135°24'0 0.0
2017-May-19 18:59N 34°33' E 135°24'0 0.1
2017-May-19 18:30N 34°33' E 135°24'0 0.1
2017-May-19 18:00N 34°33' E 135°24'0 0.1
2017-May-19 17:28N 34°33' E 135°24'0 0.1
2017-May-19 16:58N 34°33' E 135°24'0 0.1
2017-May-19 16:30N 34°33' E 135°24'0 0.1
2017-May-19 16:01N 34°33' E 135°24'0 0.1
2017-May-19 15:30N 34°33' E 135°24'0 0.1
2017-May-19 14:59N 34°33' E 135°24'0 0.1
2017-May-19 14:00N 34°33' E 135°24'0 0.2
2017-May-19 13:31N 34°33' E 135°24'0 0.1
2017-May-19 12:53N 34°33' E 135°24'0 0.2
2017-May-19 12:31N 34°33' E 135°24'0 0.1
2017-May-19 12:01N 34°33' E 135°24'0 0.3
2017-May-19 11:31N 34°33' E 135°24'0 0.2
2017-May-19 11:00N 34°33' E 135°24'0 0.1
2017-May-19 10:29N 34°33' E 135°24'0 0.2
2017-May-19 10:01N 34°33' E 135°24'0 0.1
2017-May-19 09:27N 34°33' E 135°24'0 0.0
2017-May-19 09:01N 34°33' E 135°24'0 0.0
2017-May-19 08:30N 34°33' E 135°24'0 0.2
2017-May-19 08:00N 34°33' E 135°24'0 0.0
2017-May-19 07:31N 34°33' E 135°24'0 0.3
2017-May-19 06:59N 34°33' E 135°24'0 0.1
2017-May-19 06:31N 34°33' E 135°24'0 0.1
2017-May-19 05:57N 34°33' E 135°24'0 0.2
2017-May-19 05:30N 34°33' E 135°24'0 0.2
2017-May-19 05:00N 34°33' E 135°24'0 0.0
2017-May-19 04:28N 34°33' E 135°24'0 0.1
2017-May-19 03:59N 34°33' E 135°24'0 0.0
2017-May-19 03:28N 34°33' E 135°24'0 0.1
2017-May-19 03:00N 34°33' E 135°24'0 0.1
2017-May-19 02:30N 34°33' E 135°24'0 0.2
2017-May-19 01:54N 34°33' E 135°24'0 0.1
2017-May-19 01:28N 34°33' E 135°24'3 3.4
2017-May-19 00:31N 34°33' E 135°20'0 1.4
2017-May-19 00:28N 34°33' E 135°20'2 3.9
2017-May-19 00:00N 34°32' E 135°19'1 1.6
2017-May-18 23:30N 34°32' E 135°19'4 7.5
2017-May-18 23:00N 34°31' E 135°24'3 5.5
2017-May-18 22:30N 34°33' E 135°25'2 3.1
2017-May-18 21:58N 34°33' E 135°27'0 0.0
2017-May-18 07:59N 34°33' E 135°27'511.3
2017-May-18 07:30N 34°38' E 135°23'1 2.2
2017-May-18 06:59N 34°37' E 135°24'1 1.9
2017-May-18 06:30N 34°36' E 135°24'0 0.0
2017-May-18 06:00N 34°36' E 135°24'0 0.0
2017-May-18 05:30N 34°36' E 135°24'0 0.0
2017-May-18 04:59N 34°36' E 135°24'0 0.0
2017-May-18 04:29N 34°36' E 135°24'0 0.0
2017-May-18 04:00N 34°36' E 135°24'0 0.0
2017-May-18 03:28N 34°36' E 135°24'4 7.8
2017-May-18 03:00N 34°33' E 135°27'3 1.2
2017-May-18 00:52N 34°33' E 135°23'3 6.4
2017-May-18 00:26N 34°33' E 135°20'1 3.2
2017-May-18 00:00N 34°33' E 135°22'4 4.8
2017-May-17 23:10N 34°33' E 135°27'0 0.0
2017-May-17 22:49N 34°33' E 135°27'0 0.0
2017-May-17 22:30N 34°33' E 135°27'0 0.0
2017-May-17 11:27N 34°33' E 135°27'2 3.9
2017-May-17 11:00N 34°33' E 135°25'714.4
2017-May-17 10:30N 34°34' E 135°16'815.3
2017-May-17 10:00N 34°35' E 135°07'10 0.9
2017-May-16 22:29N 34°36' E 134°54'612.1
2017-May-16 22:00N 34°37' E 135°02'612.6
2017-May-16 21:30N 34°36' E 135°09'714.4
2017-May-16 21:00N 34°34' E 135°18'713.3
2017-May-16 20:30N 34°33' E 135°26'1 1.7
2017-May-16 20:00N 34°33' E 135°27'0 0.0
2017-May-16 06:05N 34°33' E 135°27'213.3
2017-May-16 05:55N 34°34' E 135°24'512.4
2017-May-16 05:30N 34°39' E 135°24'0 0.4
2017-May-16 04:58N 34°39' E 135°24'511.6
2017-May-16 04:30N 34°33' E 135°25'1 0.3
2017-May-15 23:52N 34°33' E 135°27'1 3.2
2017-May-15 23:28N 34°33' E 135°25'0 0.5
2017-May-15 23:00N 34°33' E 135°25'2 2.8
2017-May-15 22:24N 34°33' E 135°23'2 6.3
2017-May-15 22:00N 34°34' E 135°20'2 3.1
2017-May-15 21:30N 34°34' E 135°22'4 7.0
2017-May-15 21:00N 34°33' E 135°27'0 0.0
2017-May-15 20:21N 34°33' E 135°27'  
Track history (hours):
 
Tides and Currents Weather Stations Pressure Air Temp Water Temp Dewpoint Dewpoint Depression Visibility Wind Speed Wind Dir Waves Ship Positions

Ryuhomaru

Last reported at 2017-May-25 08:26 UTC. Time now 2017-May-25 20:05 UTC.
Position N 34°33' E 135°27'.

Length 42 m; draft 3.5 m.

Type: Tug. MMSI: 431000586.

Date/timePositionNaut miles runAvg speedWind from/ knotsBaromVisibWave heightAir tempDewpointWater temp
2017-May-25 08:26N 34°33' E 135°27'3 6.3
2017-May-25 08:00N 34°34' E 135°24'5 9.1
2017-May-25 07:30N 34°38' E 135°27'0 0.2
2017-May-25 07:00N 34°38' E 135°26'4 8.8
2017-May-25 06:30N 34°35' E 135°24'3 1.6
2017-May-25 04:54N 34°33' E 135°27'0 0.0
2017-May-25 04:28N 34°33' E 135°27'0 0.0
2017-May-25 04:00N 34°33' E 135°27'0 0.0
2017-May-25 03:24N 34°33' E 135°27'0 0.0
2017-May-25 01:54N 34°33' E 135°27'0 0.0
2017-May-25 01:30N 34°33' E 135°27'0 0.0
2017-May-25 01:00N 34°33' E 135°27'0 0.0
2017-May-25 00:23N 34°33' E 135°27'0 0.0
2017-May-24 23:59N 34°33' E 135°27'1 2.7
2017-May-24 23:27N 34°33' E 135°25'612.9
2017-May-24 22:59N 34°29' E 135°20'3 6.4
2017-May-24 22:30N 34°26' E 135°19'0 0.7
2017-May-24 22:00N 34°26' E 135°19'713.5
2017-May-24 21:30N 34°32' E 135°23'3 6.8
2017-May-24 21:00N 34°33' E 135°27'0 0.0
2017-May-24 20:30N 34°33' E 135°27'0 0.0
2017-May-24 03:39N 34°33' E 135°27'0 0.0
2017-May-24 03:30N 34°33' E 135°27'2 3.5
2017-May-24 02:56N 34°33' E 135°24'0 0.0
2017-May-24 02:28N 34°33' E 135°24'0 0.2
2017-May-24 01:58N 34°33' E 135°24'2 4.4
2017-May-24 01:25N 34°33' E 135°21'1 3.1
2017-May-24 00:59N 34°33' E 135°23'3 6.4
2017-May-24 00:29N 34°33' E 135°27'0 0.0
2017-May-23 23:58N 34°33' E 135°27'0 0.0
2017-May-23 23:30N 34°33' E 135°27'0 0.0
2017-May-23 08:30N 34°33' E 135°27'2 4.7
2017-May-23 08:00N 34°33' E 135°24'714.8
2017-May-23 07:30N 34°29' E 135°16'815.2
2017-May-23 06:57N 34°24' E 135°08'4 2.9
2017-May-23 05:37N 34°23' E 135°04'213.4
2017-May-23 05:29N 34°25' E 135°06'713.9
2017-May-23 05:00N 34°28' E 135°12'713.4
2017-May-23 04:28N 34°33' E 135°19'4 9.1
2017-May-23 04:00N 34°33' E 135°24'0 0.4
2017-May-23 03:30N 34°33' E 135°24'2 3.3
2017-May-23 02:57N 34°33' E 135°26'0 0.1
2017-May-23 00:45N 34°33' E 135°27'0 0.0
2017-May-23 00:29N 34°33' E 135°27'0 0.0
2017-May-22 23:59N 34°33' E 135°27'0 0.0
2017-May-22 23:30N 34°33' E 135°27'0 0.0
2017-May-22 23:00N 34°33' E 135°27'0 0.0
2017-May-22 02:50N 34°33' E 135°27'0 1.2
2017-May-22 02:28N 34°33' E 135°26'2 3.5
2017-May-22 02:00N 34°33' E 135°24'0 0.0
2017-May-22 01:29N 34°33' E 135°24'0 0.4
2017-May-22 01:00N 34°33' E 135°24'3 5.0
2017-May-22 00:20N 34°33' E 135°20'3 7.9
2017-May-22 00:00N 34°33' E 135°17'510.1
2017-May-21 23:30N 34°29' E 135°13'611.9
2017-May-21 23:00N 34°25' E 135°08'1213.1
2017-May-21 22:04N 34°15' E 134°59'111.9
2017-May-21 22:00N 34°14' E 134°60'1 2.5
2017-May-21 21:30N 34°13' E 135°00'1011.8
2017-May-21 20:39N 34°23' E 135°02'213.6
2017-May-21 20:29N 34°24' E 135°05'713.7
2017-May-21 20:00N 34°28' E 135°11'713.9
2017-May-21 19:30N 34°31' E 135°19'612.7
2017-May-21 19:00N 34°33' E 135°26'1 1.5
2017-May-21 18:29N 34°33' E 135°27'0 0.0
2017-May-21 18:00N 34°33' E 135°27'0 0.0
2017-May-21 10:06N 34°33' E 135°27'0 0.0
2017-May-21 04:23N 34°33' E 135°27'2 3.8
2017-May-21 03:56N 34°33' E 135°25'511.9
2017-May-21 03:30N 34°39' E 135°24'1 1.8
2017-May-21 03:00N 34°39' E 135°26'2 4.3
2017-May-21 02:30N 34°38' E 135°23'510.4
2017-May-21 02:00N 34°33' E 135°27'0 0.1
2017-May-21 01:29N 34°33' E 135°27'0 0.0
2017-May-21 00:58N 34°33' E 135°27'0 0.0
2017-May-21 00:30N 34°33' E 135°27'0 0.0
2017-May-21 00:00N 34°33' E 135°27'0 0.0
2017-May-20 23:30N 34°33' E 135°27'0 0.0
2017-May-20 02:56N 34°33' E 135°27'512.0
2017-May-20 02:30N 34°34' E 135°20'3 6.0
2017-May-20 02:00N 34°33' E 135°24'0 0.6
2017-May-20 01:30N 34°33' E 135°24'0 0.2
2017-May-20 00:55N 34°33' E 135°24'0 0.1
2017-May-20 00:30N 34°33' E 135°24'0 0.5
2017-May-20 00:00N 34°33' E 135°24'0 0.4
2017-May-19 23:30N 34°33' E 135°24'0 0.1
2017-May-19 22:59N 34°33' E 135°24'0 0.1
2017-May-19 22:30N 34°33' E 135°24'0 0.1
2017-May-19 21:57N 34°33' E 135°24'0 0.1
2017-May-19 21:28N 34°33' E 135°24'0 0.0
2017-May-19 21:00N 34°33' E 135°24'0 0.1
2017-May-19 20:29N 34°33' E 135°24'0 0.1
2017-May-19 20:00N 34°33' E 135°24'0 0.0
2017-May-19 19:30N 34°33' E 135°24'0 0.0
2017-May-19 18:59N 34°33' E 135°24'0 0.1
2017-May-19 18:30N 34°33' E 135°24'0 0.1
2017-May-19 18:00N 34°33' E 135°24'0 0.1
2017-May-19 17:28N 34°33' E 135°24'0 0.1
2017-May-19 16:58N 34°33' E 135°24'0 0.1
2017-May-19 16:30N 34°33' E 135°24'0 0.1
2017-May-19 16:01N 34°33' E 135°24'0 0.1
2017-May-19 15:30N 34°33' E 135°24'0 0.1
2017-May-19 14:59N 34°33' E 135°24'0 0.1
2017-May-19 14:00N 34°33' E 135°24'0 0.2
2017-May-19 13:31N 34°33' E 135°24'0 0.1
2017-May-19 12:53N 34°33' E 135°24'0 0.2
2017-May-19 12:31N 34°33' E 135°24'0 0.1
2017-May-19 12:01N 34°33' E 135°24'0 0.3
2017-May-19 11:31N 34°33' E 135°24'0 0.2
2017-May-19 11:00N 34°33' E 135°24'0 0.1
2017-May-19 10:29N 34°33' E 135°24'0 0.2
2017-May-19 10:01N 34°33' E 135°24'0 0.1
2017-May-19 09:27N 34°33' E 135°24'0 0.0
2017-May-19 09:01N 34°33' E 135°24'0 0.0
2017-May-19 08:30N 34°33' E 135°24'0 0.2
2017-May-19 08:00N 34°33' E 135°24'0 0.0
2017-May-19 07:31N 34°33' E 135°24'0 0.3
2017-May-19 06:59N 34°33' E 135°24'0 0.1
2017-May-19 06:31N 34°33' E 135°24'0 0.1
2017-May-19 05:57N 34°33' E 135°24'0 0.2
2017-May-19 05:30N 34°33' E 135°24'0 0.2
2017-May-19 05:00N 34°33' E 135°24'0 0.0
2017-May-19 04:28N 34°33' E 135°24'0 0.1
2017-May-19 03:59N 34°33' E 135°24'0 0.0
2017-May-19 03:28N 34°33' E 135°24'0 0.1
2017-May-19 03:00N 34°33' E 135°24'0 0.1
2017-May-19 02:30N 34°33' E 135°24'0 0.2
2017-May-19 01:54N 34°33' E 135°24'0 0.1
2017-May-19 01:28N 34°33' E 135°24'3 3.4
2017-May-19 00:31N 34°33' E 135°20'0 1.4
2017-May-19 00:28N 34°33' E 135°20'2 3.9
2017-May-19 00:00N 34°32' E 135°19'1 1.6
2017-May-18 23:30N 34°32' E 135°19'4 7.5
2017-May-18 23:00N 34°31' E 135°24'3 5.5
2017-May-18 22:30N 34°33' E 135°25'2 3.1
2017-May-18 21:58N 34°33' E 135°27'0 0.0
2017-May-18 07:59N 34°33' E 135°27'511.3
2017-May-18 07:30N 34°38' E 135°23'1 2.2
2017-May-18 06:59N 34°37' E 135°24'1 1.9
2017-May-18 06:30N 34°36' E 135°24'0 0.0
2017-May-18 06:00N 34°36' E 135°24'0 0.0
2017-May-18 05:30N 34°36' E 135°24'0 0.0
2017-May-18 04:59N 34°36' E 135°24'0 0.0
2017-May-18 04:29N 34°36' E 135°24'0 0.0
2017-May-18 04:00N 34°36' E 135°24'0 0.0
2017-May-18 03:28N 34°36' E 135°24'4 7.8
2017-May-18 03:00N 34°33' E 135°27'3 1.2
2017-May-18 00:52N 34°33' E 135°23'3 6.4
2017-May-18 00:26N 34°33' E 135°20'1 3.2
2017-May-18 00:00N 34°33' E 135°22'4 4.8
2017-May-17 23:10N 34°33' E 135°27'0 0.0
2017-May-17 22:49N 34°33' E 135°27'0 0.0
2017-May-17 22:30N 34°33' E 135°27'0 0.0
2017-May-17 11:27N 34°33' E 135°27'2 3.9
2017-May-17 11:00N 34°33' E 135°25'714.4
2017-May-17 10:30N 34°34' E 135°16'815.3
2017-May-17 10:00N 34°35' E 135°07'10 0.9
2017-May-16 22:29N 34°36' E 134°54'612.1
2017-May-16 22:00N 34°37' E 135°02'612.6
2017-May-16 21:30N 34°36' E 135°09'714.4
2017-May-16 21:00N 34°34' E 135°18'713.3
2017-May-16 20:30N 34°33' E 135°26'1 1.7
2017-May-16 20:00N 34°33' E 135°27'0 0.0
2017-May-16 06:05N 34°33' E 135°27'213.3
2017-May-16 05:55N 34°34' E 135°24'512.4
2017-May-16 05:30N 34°39' E 135°24'0 0.4
2017-May-16 04:58N 34°39' E 135°24'511.6
2017-May-16 04:30N 34°33' E 135°25'1 0.3
2017-May-15 23:52N 34°33' E 135°27'1 3.2
2017-May-15 23:28N 34°33' E 135°25'0 0.5
2017-May-15 23:00N 34°33' E 135°25'2 2.8
2017-May-15 22:24N 34°33' E 135°23'2 6.3
2017-May-15 22:00N 34°34' E 135°20'2 3.1
2017-May-15 21:30N 34°34' E 135°22'4 7.0
2017-May-15 21:00N 34°33' E 135°27'0 0.0
2017-May-15 20:21N 34°33' E 135°27'  

Dump ship's entire track history